Latest Weather Observations for Tibooburra Airport

IDN60801

Issued at 8:32 pm EST Wednesday 28 June 2017 (issued every 30 minutes, with the page automatically refreshed every 10 minutes)

About weather observations | Map of weather stations | Latest weather observations for NSW | Other Formats
Station Details ID: 046126 Name: TIBOOBURRA AIRPORT Lat: -29.44 Lon: 142.06 Height: 176.4 m
Data from the previous 72 hours. | See also: Recent months at Tibooburra Airport
Date/Time
EST
Temp
°C
App
Temp
°C
Dew
Point
°C
Rel
Hum
%
Delta-T
°C
Wind Press
QNH
hPa
Press
MSL
hPa
Rain since
9am
mm
Dir  Spd
km/h
Gust
km/h
Spd
kts
Gust
kts
28/08:30pm 13.8 13.8 13.6 99 0.1 SSE 6 9 3 5 1023.1 1023.1 0.0
28/08:00pm 13.8 13.2 13.6 99 0.1 S 9 9 5 5 1023.1 1023.1 0.0
28/07:30pm 13.8 13.2 13.6 99 0.1 SSE 9 13 5 7 1022.9 1022.9 0.0
28/07:00pm 14.1 13.6 13.9 99 0.1 S 9 11 5 6 1022.6 1022.6 0.0
28/06:30pm 14.2 13.0 14.0 99 0.1 S 13 15 7 8 1022.0 1022.1 0.0
28/06:00pm 14.4 14.0 14.2 99 0.1 SSW 9 9 5 5 1021.6 1021.7 0.0
28/05:30pm 14.5 13.8 14.3 99 0.1 S 11 15 6 8 1021.3 1021.3 0.0
28/05:00pm 14.5 13.8 14.3 99 0.1 S 11 15 6 8 1021.6 1021.7 0.0
28/04:30pm 14.6 13.2 14.4 99 0.1 S 15 17 8 9 1021.6 1021.7 0.0
28/04:00pm 14.9 13.2 14.7 99 0.1 S 17 22 9 12 1021.3 1021.3 0.0
28/03:30pm 15.7 15.6 13.2 85 1.4 E 6 7 3 4 1021.0 1021.0 0.0
28/03:00pm 15.6 16.9 14.1 91 0.9 CALM 0 6 0 3 1021.0 1021.0 0.0
28/02:30pm 15.2 16.0 13.6 90 0.9 SSW 2 9 1 5 1021.1 1021.1 0.0
28/02:00pm 15.3 15.2 14.0 92 0.7 S 7 13 4 7 1021.1 1021.1 0.0
28/01:30pm 15.2 15.4 14.6 96 0.3 SE 7 11 4 6 1021.5 1021.6 0.0
28/01:00pm 14.5 15.1 14.3 99 0.1 SE 4 7 2 4 1022.0 1022.1 0.0
28/12:30pm 14.1 14.0 13.9 99 0.1 ESE 7 11 4 6 1022.3 1022.3 0.0
28/12:00pm 13.8 13.3 13.8 100 0.0 E 9 11 5 6 1022.6 1022.6 0.0
28/11:30am 13.6 13.0 13.6 100 0.0 ESE 9 13 5 7 1023.0 1023.0 0.0
28/11:00am 13.0 12.6 13.0 100 0.0 SE 7 9 4 5 1023.2 1023.2 0.0
28/10:30am 12.6 11.7 12.6 100 0.0 SE 9 11 5 6 1023.0 1023.0 0.0
28/10:00am 12.2 11.2 12.2 100 0.0 SE 9 11 5 6 1023.1 1023.1 0.0
28/09:30am 11.8 10.3 11.8 100 0.0 E 11 13 6 7 1023.1 1023.1 0.0
28/09:00am 11.6 9.6 11.6 100 0.0 ENE 13 17 7 9 1022.9 1022.9 13.2
28/08:30am 11.3 8.9 11.3 100 0.0 ENE 15 20 8 11 1022.5 1022.5 13.2
28/08:00am 11.2 9.9 11.2 100 0.0 NE 9 13 5 7 1022.7 1022.7 13.2
28/07:30am 11.2 9.1 11.2 100 0.0 ENE 13 17 7 9 1021.9 1022.0 13.2
28/07:00am 11.2 9.5 11.2 100 0.0 ENE 11 15 6 8 1021.9 1022.0 13.2
28/06:30am 11.2 8.7 11.2 100 0.0 ENE 15 17 8 9 1021.8 1021.9 13.2
28/06:00am 11.2 8.4 11.2 100 0.0 NE 17 20 9 11 1021.8 1021.9 13.2
28/05:30am 11.1 8.6 11.1 100 0.0 NE 15 17 8 9 1021.5 1021.6 13.2
28/05:00am 11.1 8.6 11.1 100 0.0 ENE 15 17 8 9 1021.4 1021.5 13.2
28/04:30am 11.2 9.1 11.2 100 0.0 ENE 13 15 7 8 1021.7 1021.8 12.6
28/04:00am 11.2 9.9 11.2 100 0.0 E 9 11 5 6 1022.2 1022.2 11.0
28/03:30am 11.3 10.4 11.3 100 0.0 E 7 9 4 5 1022.3 1022.3 9.6
28/03:00am 11.3 11.0 11.3 100 0.0 E 4 6 2 3 1022.3 1022.3 8.2
28/02:30am 11.4 10.7 11.4 100 0.0 E 6 9 3 5 1022.2 1022.2 6.8
28/02:00am 11.5 10.3 11.5 100 0.0 E 9 11 5 6 1022.2 1022.2 5.6
28/01:30am 11.6 9.6 11.4 99 0.1 E 13 17 7 9 1022.0 1022.1 4.6
28/01:00am 11.9 10.3 11.7 99 0.1 E 11 13 6 7 1022.5 1022.5 4.0
28/12:30am 12.1 10.2 11.9 99 0.1 E 13 15 7 8 1022.6 1022.6 3.6
28/12:00am 12.5 11.9 12.3 99 0.1 E 7 9 4 5 1023.1 1023.1 3.2
 
Date/Time
EST
Temp
°C
App
Temp
°C
Dew
Point
°C
Rel
Hum
%
Delta-T
°C
Wind Press
QNH
hPa
Press
MSL
hPa
Rain since
9am
mm
Dir  Spd
km/h
Gust
km/h
Spd
kts
Gust
kts
27/11:30pm 12.7 12.3 12.5 99 0.1 E 6 7 3 4 1023.8 1023.8 2.8
27/11:00pm 13.0 13.9 12.8 99 0.1 CALM 0 0 0 0 1023.8 1023.8 2.0
27/10:30pm 13.1 14.0 12.9 99 0.1 CALM 0 0 0 0 1023.6 1023.6 2.0
27/10:00pm 13.3 14.2 13.0 98 0.2 CALM 0 0 0 0 1023.5 1023.5 1.6
27/09:30pm 13.5 13.2 13.2 98 0.2 SW 7 9 4 5 1023.8 1023.8 1.0
27/09:00pm 13.6 13.2 12.5 93 0.6 SSW 6 9 3 5 1023.3 1023.3 0.6
27/08:30pm 14.2 12.6 11.7 85 1.4 SW 11 11 6 6 1023.1 1023.1 0.2
27/08:00pm 15.3 13.4 9.0 66 3.2 S 9 13 5 7 1022.4 1022.4 0.0
27/07:30pm 15.6 13.6 8.6 63 3.6 SE 9 11 5 6 1021.8 1021.9 0.0
27/07:00pm 16.0 13.8 8.0 59 4.0 SSE 9 13 5 7 1021.8 1021.9 0.0
27/06:30pm 16.5 13.8 7.2 54 4.7 SSE 11 15 6 8 1021.5 1021.6 0.0
27/06:00pm 17.3 14.7 5.9 47 5.6 SE 9 11 5 6 1021.0 1021.0 0.0
27/05:30pm 17.8 14.7 5.4 44 6.1 SE 11 15 6 8 1020.6 1020.6 0.0
27/05:00pm 18.3 15.6 5.5 43 6.3 SSE 9 11 5 6 1020.6 1020.6 0.0
27/04:30pm 18.6 16.7 5.1 41 6.6 SSE 4 9 2 5 1020.9 1020.9 0.0
27/04:00pm 19.2 16.3 4.9 39 7.0 E 9 11 5 6 1020.8 1020.8 0.0
27/03:30pm 19.1 14.8 5.2 40 6.8 E 17 22 9 12 1020.3 1020.3 0.0
27/03:00pm 18.7 14.7 4.8 40 6.7 E 15 22 8 12 1020.2 1020.2 0.0
27/02:30pm 18.6 15.1 5.5 42 6.4 ENE 13 19 7 10 1020.8 1020.8 0.0
27/02:00pm 18.1 14.3 6.0 45 6.0 ENE 15 20 8 11 1021.2 1021.2 0.0
27/01:30pm 17.4 13.6 6.0 47 5.6 ENE 15 20 8 11 1021.5 1021.6 0.0
27/01:00pm 16.7 13.8 6.5 51 5.0 ENE 11 15 6 8 1022.7 1022.7 0.0
27/12:30pm 15.9 12.8 7.1 56 4.4 E 13 17 7 9 1023.1 1023.1 0.0
27/12:00pm 14.7 12.0 7.5 62 3.6 E 11 15 6 8 1023.6 1023.6 0.0
27/11:30am 14.2 11.2 7.5 64 3.3 ESE 13 15 7 8 1024.0 1024.0 0.0
27/11:00am 13.7 10.7 7.5 66 3.1 E 13 17 7 9 1024.2 1024.2 0.0
27/10:30am 13.3 10.0 8.0 70 2.6 E 15 19 8 10 1024.5 1024.5 0.0
27/10:00am 13.0 9.8 8.3 73 2.3 E 15 19 8 10 1024.6 1024.6 0.0
27/09:30am 12.0 8.7 7.9 76 2.0 E 15 19 8 10 1024.2 1024.2 0.0
27/09:00am 11.0 8.6 8.8 86 1.1 ESE 11 13 6 7 1024.3 1024.3 0.4
27/08:30am 10.8 8.5 9.1 89 0.9 E 11 13 6 7 1024.1 1024.1 0.4
27/08:00am 10.7 8.8 9.0 89 0.8 SE 9 13 5 7 1024.0 1024.0 0.4
27/07:30am 10.8 9.2 8.7 87 1.0 SE 7 9 4 5 1024.3 1024.3 0.4
27/07:00am 11.0 9.7 9.1 88 0.9 ESE 6 9 3 5 1024.1 1024.1 0.2
27/06:30am 10.9 9.2 9.7 92 0.6 SSE 9 13 5 7 1023.4 1023.4 0.2
27/06:00am 11.2 10.7 9.3 88 1.0 SSW 2 9 1 5 1023.8 1023.8 0.0
27/05:30am 11.6 10.9 7.1 74 2.2 CALM 0 0 0 0 1023.6 1023.6 0.0
27/05:00am 11.7 11.0 6.8 72 2.3 CALM 0 0 0 0 1023.4 1023.4 0.0
27/04:30am 11.8 9.3 6.5 70 2.5 SE 9 13 5 7 1022.7 1022.7 0.0
27/04:00am 11.9 9.7 6.4 69 2.6 ESE 7 13 4 7 1023.2 1023.2 0.0
27/03:30am 11.8 9.6 6.3 69 2.6 E 7 11 4 6 1023.5 1023.5 0.0
27/03:00am 12.0 7.4 5.6 65 3.0 SE 19 24 10 13 1022.6 1022.6 0.0
27/02:30am 12.9 8.7 3.8 54 4.1 E 15 20 8 11 1023.2 1023.2 0.0
27/02:00am 13.2 6.6 4.1 54 4.2 SE 28 35 15 19 1021.8 1021.9 0.0
27/01:30am 13.7 9.1 3.5 50 4.6 SE 17 24 9 13 1023.4 1023.4 0.0
27/01:00am 13.9 9.5 2.5 46 5.1 SE 15 19 8 10 1023.7 1023.7 0.0
27/12:30am 13.9 10.6 2.2 45 5.2 SE 9 11 5 6 1024.5 1024.5 0.0
27/12:00am 14.1 11.2 2.4 45 5.2 SSE 7 9 4 5 1025.0 1025.0 0.0
 
Date/Time
EST
Temp
°C
App
Temp
°C
Dew
Point
°C
Rel
Hum
%
Delta-T
°C
Wind Press
QNH
hPa
Press
MSL
hPa
Rain since
9am
mm
Dir  Spd
km/h
Gust
km/h
Spd
kts
Gust
kts
26/11:30pm 14.2 11.3 2.5 45 5.2 SSE 7 9 4 5 1025.1 1025.1 0.0
26/11:00pm 14.3 11.5 2.2 44 5.3 SE 6 7 3 4 1025.3 1025.3 0.0
26/10:30pm 14.5 11.6 2.4 44 5.4 SSE 7 11 4 6 1025.1 1025.1 0.0
26/10:00pm 14.7 10.7 2.6 44 5.4 SSE 13 15 7 8 1024.6 1024.6 0.0
26/09:30pm 14.8 11.2 3.0 45 5.4 S 11 15 6 8 1024.8 1024.8 0.0
26/09:00pm 14.7 10.7 2.9 45 5.3 S 13 15 7 8 1024.6 1024.6 0.0
26/08:30pm 14.6 11.0 3.1 46 5.2 S 11 13 6 7 1024.5 1024.5 0.0
26/08:00pm 14.5 11.3 3.0 46 5.2 S 9 11 5 6 1024.2 1024.2 0.0
26/07:30pm 14.5 11.3 3.0 46 5.2 S 9 11 5 6 1024.0 1024.0 0.0
26/07:00pm 14.7 11.1 2.9 45 5.3 S 11 11 6 6 1023.8 1023.8 0.0
26/06:30pm 15.4 11.8 2.9 43 5.7 SSE 11 11 6 6 1023.1 1023.1 0.0
26/06:00pm 16.6 12.7 3.3 41 6.1 SSE 13 15 7 8 1022.9 1022.9 0.0
26/05:30pm 17.4 13.4 3.0 38 6.7 SSE 13 19 7 10 1022.4 1022.4 0.0
26/05:00pm 18.3 13.6 3.4 37 7.0 SSE 17 20 9 11 1022.2 1022.2 0.0
26/04:30pm 18.6 14.3 3.3 36 7.2 SE 15 26 8 14 1021.9 1022.0 0.0
26/04:00pm 19.0 14.3 3.2 35 7.4 SSE 17 24 9 13 1022.0 1022.1 0.0
26/03:30pm 19.1 15.2 3.3 35 7.5 SSE 13 22 7 12 1022.4 1022.4 0.0
26/03:00pm 19.0 14.8 3.6 36 7.3 SSE 15 26 8 14 1022.4 1022.4 0.0
26/02:30pm 19.1 15.6 3.3 35 7.5 ESE 11 17 6 9 1022.6 1022.6 0.0
26/02:00pm 19.3 15.1 3.9 36 7.3 SE 15 22 8 12 1022.7 1022.7 0.0
26/01:30pm 18.3 13.6 3.4 37 7.0 ESE 17 24 9 13 1023.0 1023.0 0.0
26/01:00pm 18.0 13.4 3.9 39 6.7 ESE 17 24 9 13 1023.8 1023.8 0.0
26/12:30pm 17.5 12.4 4.1 41 6.4 ESE 20 26 11 14 1023.8 1023.8 0.0
26/12:00pm 17.4 13.0 4.7 43 6.1 ESE 17 22 9 12 1024.5 1024.5 0.0
26/11:30am 16.5 11.6 4.9 46 5.6 E 20 28 11 15 1024.7 1024.7 0.0
26/11:00am 15.1 10.1 4.8 50 4.8 ESE 20 26 11 14 1025.3 1025.3 0.0
26/10:30am 15.0 10.6 5.0 51 4.7 SE 17 22 9 12 1025.1 1025.1 0.0
26/10:00am 14.2 9.8 4.8 53 4.4 SSE 17 20 9 11 1025.2 1025.2 0.0
26/09:30am 13.8 10.1 4.7 54 4.2 SSE 13 17 7 9 1025.1 1025.1 0.0
26/09:00am 12.7 8.2 4.2 56 3.9 S 17 20 9 11 1024.4 1024.4 0.0
26/08:30am 12.6 9.2 4.1 56 3.9 S 11 19 6 10 1023.9 1023.9 0.0
26/08:00am 11.7 8.3 4.0 59 3.5 S 11 13 6 7 1023.5 1023.5 0.0
26/07:30am 11.4 8.0 3.9 60 3.4 SE 11 15 6 8 1023.0 1023.0 0.0
26/07:00am 11.5 8.5 4.0 60 3.4 SSE 9 13 5 7 1022.9 1022.9 0.0
26/06:30am 11.2 8.1 3.7 60 3.4 S 9 11 5 6 1022.7 1022.7 0.0
26/06:00am 10.7 7.6 3.5 61 3.2 S 9 13 5 7 1022.4 1022.4 0.0
26/05:30am 10.5 7.4 3.5 62 3.1 SW 9 11 5 6 1021.9 1022.0 0.0
26/05:00am 10.0 6.4 3.1 62 3.0 SSW 11 13 6 7 1021.7 1021.8 0.0
26/04:30am 10.2 6.6 3.0 61 3.1 WSW 11 13 6 7 1021.8 1021.9 0.0
26/04:00am 10.0 6.4 2.8 61 3.1 SW 11 13 6 7 1021.1 1021.1 0.0
26/03:30am 10.3 6.7 3.1 61 3.1 SW 11 15 6 8 1021.5 1021.6 0.0
26/03:00am 9.8 6.5 2.6 61 3.1 SW 9 11 5 6 1021.2 1021.2 0.0
26/02:30am 9.6 6.6 2.2 60 3.2 WSW 7 9 4 5 1021.1 1021.1 0.0
26/02:00am 10.2 6.6 2.8 60 3.2 SSW 11 13 6 7 1021.1 1021.1 0.0
26/01:30am 10.8 7.6 3.1 59 3.4 SW 9 11 5 6 1021.5 1021.6 0.0
26/01:00am 11.3 7.8 3.3 58 3.5 SW 11 13 6 7 1021.4 1021.5 0.0
26/12:30am 11.2 7.6 3.0 57 3.6 SSW 11 13 6 7 1021.2 1021.2 0.0
26/12:00am 11.8 8.3 3.3 56 3.8 SW 11 13 6 7 1021.3 1021.3 0.0
 
Date/Time
EST
Temp
°C
App
Temp
°C
Dew
Point
°C
Rel
Hum
%
Delta-T
°C
Wind Press
QNH
hPa
Press
MSL
hPa
Rain since
9am
mm
Dir  Spd
km/h
Gust
km/h
Spd
kts
Gust
kts
25/11:30pm 12.7 9.6 3.6 54 4.1 SW 9 11 5 6 1021.4 1021.5 0.0
25/11:00pm 13.1 9.9 3.2 51 4.4 SSW 9 13 5 7 1021.3 1021.3 0.0
25/10:30pm 13.8 9.9 3.6 50 4.7 SSW 13 17 7 9 1021.4 1021.5 0.0
25/10:00pm 14.2 9.8 2.8 46 5.1 SSW 15 17 8 9 1021.2 1021.2 0.0
25/09:30pm 13.8 10.1 2.4 46 5.1 SW 11 13 6 7 1020.9 1020.9 0.0
25/09:00pm 14.1 10.0 2.0 44 5.3 WSW 13 13 7 7 1020.9 1020.9 0.0

Other Formats:

Comma delimited format used in spreadsheet applications
http://www.bom.gov.au/fwo/IDN60801/IDN60801.95485.axf

JavaScript Object Notation format (JSON) in row-major order
http://www.bom.gov.au/fwo/IDN60801/IDN60801.95485.json